createdAt,value
2023-02-22T00:01:07.517Z,14.27
2023-02-22T00:03:35.956Z,17.10
2023-02-22T00:06:06.920Z,14.13
2023-02-22T00:08:38.565Z,11.50
2023-02-22T00:11:09.171Z,11.10
2023-02-22T00:13:38.545Z,13.25
2023-02-22T00:16:08.213Z,12.82
2023-02-22T00:18:37.747Z,19.45
2023-02-22T00:21:10.525Z,12.90
2023-02-22T00:23:46.540Z,10.93
2023-02-22T00:26:18.286Z,12.45
2023-02-22T00:28:48.807Z,12.50
2023-02-22T00:31:18.055Z,13.20
2023-02-22T00:33:47.290Z,14.13
2023-02-22T00:36:16.410Z,16.05
2023-02-22T00:38:46.133Z,16.15
2023-02-22T00:41:15.298Z,26.60
2023-02-22T00:43:44.407Z,14.30
2023-02-22T00:46:15.204Z,12.57
2023-02-22T00:48:44.501Z,15.13
2023-02-22T00:51:13.074Z,17.00
2023-02-22T00:53:41.879Z,23.55
2023-02-22T00:56:11.754Z,14.25
2023-02-22T00:58:40.266Z,19.38
2023-02-22T01:01:08.857Z,13.05
2023-02-22T01:03:41.172Z,10.65
2023-02-22T01:06:09.775Z,14.80
2023-02-22T01:08:38.343Z,17.20
2023-02-22T01:11:06.804Z,15.05
2023-02-22T01:13:36.428Z,13.57
2023-02-22T01:16:08.236Z,10.25
2023-02-22T01:18:36.766Z,10.32
2023-02-22T01:21:06.254Z,5.25
2023-02-22T01:23:34.950Z,9.43
2023-02-22T01:26:05.763Z,11.00
2023-02-22T01:28:35.949Z,7.75
2023-02-22T01:31:04.867Z,6.72
2023-02-22T01:33:34.000Z,9.27
2023-02-22T01:36:03.686Z,5.45
2023-02-22T01:38:32.164Z,16.88
2023-02-22T01:41:01.515Z,7.78
2023-02-22T01:43:33.453Z,6.07
2023-02-22T01:46:05.089Z,7.97
2023-02-22T01:48:44.419Z,10.80
2023-02-22T01:51:17.035Z,10.20
2023-02-22T01:53:53.242Z,7.30
2023-02-22T01:56:24.890Z,10.48
2023-02-22T01:58:59.304Z,14.07
2023-02-22T02:01:31.447Z,11.50
2023-02-22T02:04:04.932Z,11.48
2023-02-22T02:06:36.830Z,13.40
2023-02-22T02:09:11.757Z,24.90
2023-02-22T02:11:41.374Z,13.32
2023-02-22T02:14:12.063Z,12.38
2023-02-22T02:16:45.634Z,13.27
2023-02-22T02:19:25.876Z,11.40
2023-02-22T02:22:30.066Z,11.05
2023-02-22T02:25:45.105Z,9.73
2023-02-22T02:28:34.049Z,11.20
2023-02-22T02:32:08.568Z,7.78
2023-02-22T02:34:45.915Z,10.15
2023-02-22T02:37:22.483Z,13.50
2023-02-22T02:39:56.517Z,10.35
2023-02-22T02:42:30.913Z,11.25
2023-02-22T02:45:10.522Z,7.30
2023-02-22T02:47:43.267Z,11.68
2023-02-22T02:50:18.181Z,9.90
2023-02-22T02:52:47.488Z,7.85
2023-02-22T02:55:19.125Z,7.63
2023-02-22T02:57:47.433Z,11.88
2023-02-22T03:00:23.246Z,10.13
2023-02-22T03:03:11.309Z,10.85
2023-02-22T03:06:01.825Z,9.23
2023-02-22T03:08:35.734Z,8.45
2023-02-22T03:11:15.269Z,12.07
2023-02-22T03:13:56.257Z,6.55
2023-02-22T03:16:35.471Z,8.68
2023-02-22T03:19:11.976Z,10.35
2023-02-22T03:21:54.460Z,7.50
2023-02-22T03:24:31.094Z,10.40
2023-02-22T03:27:09.205Z,10.27
2023-02-22T03:29:43.805Z,10.27
2023-02-22T03:32:19.879Z,9.88
2023-02-22T03:34:58.014Z,9.27
2023-02-22T03:37:34.053Z,17.88
2023-02-22T03:40:13.791Z,8.13
2023-02-22T03:42:48.551Z,10.60
2023-02-22T03:45:21.167Z,9.48
2023-02-22T03:47:57.414Z,10.77
2023-02-22T03:50:30.932Z,13.00
2023-02-22T03:53:00.586Z,9.35
2023-02-22T03:55:31.390Z,8.60
2023-02-22T03:58:03.293Z,8.65
2023-02-22T04:00:35.144Z,10.75
2023-02-22T04:03:05.019Z,8.43
2023-02-22T04:05:33.248Z,8.05
2023-02-22T04:08:02.879Z,8.93
2023-02-22T04:10:33.449Z,9.70
2023-02-22T04:13:01.976Z,9.40
2023-02-22T04:15:30.772Z,12.68
2023-02-22T04:20:34.911Z,10.50
2023-02-22T04:23:13.589Z,13.68
2023-02-22T04:25:43.438Z,13.48
2023-02-22T04:28:18.131Z,10.43
2023-02-22T04:30:54.814Z,10.55
2023-02-22T04:33:24.078Z,19.35
2023-02-22T04:35:52.524Z,19.25
2023-02-22T04:38:22.083Z,12.10
2023-02-22T04:40:50.357Z,7.75
2023-02-22T04:43:18.930Z,10.63
2023-02-22T04:45:48.641Z,8.68
2023-02-22T04:48:17.273Z,12.25
2023-02-22T04:50:47.253Z,11.50
2023-02-22T04:53:15.608Z,11.88
2023-02-22T04:55:45.248Z,12.38
2023-02-22T04:58:13.867Z,11.10
2023-02-22T05:00:42.373Z,9.73
2023-02-22T05:03:10.969Z,12.95
2023-02-22T05:05:39.225Z,12.07
2023-02-22T05:08:07.657Z,12.15
2023-02-22T05:10:36.204Z,10.35
2023-02-22T05:13:06.454Z,11.98
2023-02-22T05:15:34.969Z,18.38
2023-02-22T05:18:03.541Z,8.43
2023-02-22T05:20:35.377Z,9.05
2023-02-22T05:23:05.459Z,10.30
2023-02-22T05:25:34.480Z,10.73
2023-02-22T05:28:08.816Z,12.93
2023-02-22T05:30:39.591Z,12.75
2023-02-22T05:33:08.559Z,11.65
2023-02-22T05:35:38.039Z,10.27
2023-02-22T05:38:07.378Z,15.77
2023-02-22T05:40:36.007Z,12.52
2023-02-22T05:43:05.895Z,18.42
2023-02-22T05:45:34.163Z,13.85
2023-02-22T05:48:03.106Z,19.50
2023-02-22T05:50:33.062Z,15.00
2023-02-22T05:53:02.040Z,14.65
2023-02-22T05:55:30.261Z,14.93
2023-02-22T05:57:58.551Z,27.42
2023-02-22T06:00:30.709Z,21.02
2023-02-22T06:03:00.954Z,19.90
2023-02-22T06:05:30.099Z,18.75
2023-02-22T06:07:59.436Z,15.10
2023-02-22T06:10:28.835Z,12.95
2023-02-22T06:12:58.577Z,12.25
2023-02-22T06:15:29.238Z,14.80
2023-02-22T06:17:58.784Z,19.45
2023-02-22T06:20:29.875Z,19.60
2023-02-22T06:22:59.688Z,42.15
2023-02-22T06:25:31.215Z,40.85
2023-02-22T06:28:00.296Z,54.47
2023-02-22T06:30:30.858Z,42.83
2023-02-22T06:32:59.215Z,39.22
2023-02-22T06:35:27.770Z,44.38
2023-02-22T06:37:56.286Z,36.28
2023-02-22T06:40:29.299Z,32.05
2023-02-22T06:42:58.382Z,35.00
2023-02-22T06:45:26.947Z,30.63
2023-02-22T06:47:56.845Z,24.88
2023-02-22T06:50:28.702Z,29.00
2023-02-22T06:52:58.518Z,42.72
2023-02-22T06:55:29.829Z,27.83
2023-02-22T06:57:58.700Z,33.22
2023-02-22T07:00:28.794Z,38.70
2023-02-22T07:02:59.560Z,34.65
2023-02-22T07:05:29.512Z,30.65
2023-02-22T07:08:10.978Z,25.65
2023-02-22T07:10:41.022Z,28.38
2023-02-22T07:13:09.945Z,31.05
2023-02-22T07:15:38.215Z,25.00
2023-02-22T07:18:07.923Z,22.42
2023-02-22T07:20:36.479Z,24.35
2023-02-22T07:23:05.093Z,25.20
2023-02-22T07:25:33.602Z,16.90
2023-02-22T07:28:02.912Z,18.77
2023-02-22T07:30:34.113Z,19.60
2023-02-22T07:33:04.865Z,19.95
2023-02-22T07:35:37.565Z,24.17
2023-02-22T07:38:08.017Z,20.52
2023-02-22T07:40:37.111Z,17.33
2023-02-22T07:43:14.166Z,36.60
2023-02-22T07:45:42.678Z,47.58
2023-02-22T07:48:12.560Z,37.85
2023-02-22T07:50:42.802Z,32.83
2023-02-22T07:53:18.000Z,47.75
2023-02-22T07:55:47.767Z,45.85
2023-02-22T07:58:17.031Z,29.05
2023-02-22T08:00:48.311Z,23.67
2023-02-22T08:03:19.172Z,27.80
2023-02-22T08:05:52.567Z,27.20
2023-02-22T08:08:21.366Z,20.23
2023-02-22T08:10:50.460Z,19.02
2023-02-22T08:13:20.096Z,25.40
2023-02-22T08:15:48.986Z,20.67
2023-02-22T08:18:19.918Z,17.52
2023-02-22T08:20:51.908Z,19.80
2023-02-22T08:23:22.430Z,20.77
2023-02-22T08:25:50.997Z,23.45
2023-02-22T08:28:23.735Z,20.48
2023-02-22T08:30:57.366Z,16.38
2023-02-22T08:33:30.671Z,20.48
2023-02-22T08:36:03.138Z,21.85
2023-02-22T08:38:33.967Z,19.15
2023-02-22T08:41:02.556Z,16.75
2023-02-22T08:43:31.025Z,20.25
2023-02-22T08:45:59.584Z,21.20
2023-02-22T08:48:27.975Z,22.10
2023-02-22T08:50:56.650Z,19.10
2023-02-22T08:53:26.256Z,20.92
2023-02-22T08:55:54.810Z,18.75
2023-02-22T08:58:23.294Z,20.20
2023-02-22T09:00:51.534Z,18.95
2023-02-22T09:03:20.097Z,18.15
2023-02-22T09:05:49.038Z,14.43
2023-02-22T09:08:18.270Z,15.15
2023-02-22T09:10:48.357Z,16.15
2023-02-22T09:13:16.834Z,15.32
2023-02-22T09:15:45.445Z,13.30
2023-02-22T09:18:17.985Z,17.90
2023-02-22T09:20:46.262Z,11.95
2023-02-22T09:23:14.617Z,15.57
2023-02-22T09:25:43.132Z,16.80
2023-02-22T09:28:12.693Z,14.73
2023-02-22T09:30:41.369Z,10.45
2023-02-22T09:33:12.285Z,13.02
2023-02-22T09:35:42.681Z,11.65
2023-02-22T09:38:12.004Z,11.05
2023-02-22T09:40:45.711Z,13.18
2023-02-22T09:43:36.492Z,14.48
2023-02-22T09:46:20.224Z,15.27
2023-02-22T09:49:03.171Z,13.82
2023-02-22T09:51:41.155Z,14.70
2023-02-22T09:54:20.762Z,18.20
2023-02-22T09:56:51.986Z,14.50
2023-02-22T09:59:28.195Z,23.40
2023-02-22T10:02:06.650Z,16.25
2023-02-22T10:04:44.470Z,22.65
2023-02-22T10:07:21.418Z,16.02
2023-02-22T10:09:51.240Z,22.13
2023-02-22T10:12:30.739Z,20.00
2023-02-22T10:15:35.610Z,17.88
2023-02-22T10:18:48.184Z,19.25
2023-02-22T10:21:33.678Z,21.65
2023-02-22T10:24:14.279Z,18.48
2023-02-22T10:26:45.056Z,19.25
2023-02-22T10:29:22.167Z,23.38
2023-02-22T10:31:59.153Z,17.92
2023-02-22T10:34:31.422Z,18.13
2023-02-22T10:37:09.104Z,23.13
2023-02-22T10:39:40.889Z,16.73
2023-02-22T10:42:10.095Z,17.38
2023-02-22T10:44:40.345Z,14.90
2023-02-22T10:47:12.549Z,20.10
2023-02-22T10:49:47.192Z,24.92
2023-02-22T10:52:23.269Z,20.05
2023-02-22T10:54:55.485Z,19.08
2023-02-22T10:57:29.118Z,15.15
2023-02-22T10:59:58.103Z,17.33
2023-02-22T11:02:32.176Z,16.20
2023-02-22T11:05:03.408Z,16.20
2023-02-22T11:07:34.175Z,20.38
2023-02-22T11:10:05.689Z,17.92
2023-02-22T11:12:37.509Z,17.85
2023-02-22T11:15:29.710Z,15.85
2023-02-22T11:18:01.790Z,18.25
2023-02-22T11:20:35.009Z,26.80
2023-02-22T11:23:05.739Z,20.15
2023-02-22T11:25:37.351Z,21.88
2023-02-22T11:28:14.831Z,27.27
2023-02-22T11:30:45.014Z,18.10
2023-02-22T11:33:23.900Z,18.95
2023-02-22T11:35:54.951Z,19.88
2023-02-22T11:38:25.916Z,21.70
2023-02-22T11:41:14.516Z,22.58
2023-02-22T11:43:44.426Z,20.88
2023-02-22T11:46:17.898Z,21.00
2023-02-22T11:48:59.612Z,15.90
2023-02-22T11:51:52.390Z,17.02
2023-02-22T11:54:53.088Z,20.58
2023-02-22T11:57:42.397Z,15.90
2023-02-22T12:00:25.393Z,20.35
2023-02-22T12:03:24.237Z,26.23
2023-02-22T12:06:20.253Z,16.50
2023-02-22T12:09:07.092Z,20.23
2023-02-22T12:11:45.571Z,123.93
2023-02-22T12:14:27.231Z,83.93
2023-02-22T12:17:14.869Z,18.50
2023-02-22T12:19:47.207Z,21.48
2023-02-22T12:22:24.062Z,16.63
2023-02-22T12:25:09.815Z,18.45
2023-02-22T12:27:45.168Z,20.13
2023-02-22T12:30:23.541Z,20.98
2023-02-22T12:32:55.071Z,21.42
2023-02-22T12:35:27.400Z,20.98
2023-02-22T12:38:05.574Z,20.40
2023-02-22T12:40:45.009Z,20.60
2023-02-22T12:43:22.342Z,14.30
2023-02-22T12:45:59.120Z,18.05
2023-02-22T12:48:39.478Z,18.13
2023-02-22T12:51:24.721Z,18.23
2023-02-22T12:56:35.317Z,17.70
2023-02-22T12:59:13.521Z,13.18
2023-02-22T13:01:46.812Z,12.13
2023-02-22T13:04:20.843Z,19.27
2023-02-22T13:07:11.004Z,10.40
2023-02-22T13:10:07.697Z,15.45
2023-02-22T13:12:51.370Z,17.02
2023-02-22T13:15:30.540Z,20.50
2023-02-22T13:18:11.594Z,23.75
2023-02-22T13:20:46.375Z,16.10
2023-02-22T13:25:58.081Z,12.82
2023-02-22T13:28:35.937Z,10.63
2023-02-22T13:31:36.795Z,15.38
2023-02-22T13:34:34.524Z,13.57
2023-02-22T13:37:38.061Z,21.55
2023-02-22T13:40:51.884Z,18.42
2023-02-22T13:44:16.243Z,13.70
2023-02-22T13:47:43.177Z,11.93
2023-02-22T13:50:44.591Z,16.70
2023-02-22T13:53:18.055Z,19.70
2023-02-22T13:55:56.575Z,18.75
2023-02-22T13:58:25.691Z,13.73
2023-02-22T14:00:57.834Z,13.85
2023-02-22T14:03:40.350Z,11.85
2023-02-22T14:06:12.206Z,12.00
2023-02-22T14:08:45.823Z,21.13
2023-02-22T14:11:43.056Z,15.75
2023-02-22T14:14:14.669Z,11.50
2023-02-22T14:16:44.724Z,13.02
2023-02-22T14:19:22.903Z,15.57
2023-02-22T14:22:01.987Z,13.48
2023-02-22T14:24:42.801Z,15.23
2023-02-22T14:27:12.751Z,13.50
2023-02-22T14:29:53.657Z,20.13
2023-02-22T14:32:34.572Z,12.20
2023-02-22T14:35:14.284Z,13.30
2023-02-22T14:37:55.474Z,17.95
2023-02-22T14:40:27.451Z,14.50
2023-02-22T14:43:04.932Z,20.90
2023-02-22T14:45:35.216Z,19.98
2023-02-22T14:48:16.739Z,27.33
2023-02-22T14:50:51.870Z,23.58
2023-02-22T14:53:27.403Z,24.05
2023-02-22T14:56:02.359Z,27.15
2023-02-22T14:58:38.945Z,24.48
2023-02-22T15:01:31.355Z,16.20
2023-02-22T15:04:22.241Z,15.40
2023-02-22T15:06:51.427Z,18.15
2023-02-22T15:09:27.682Z,16.23
2023-02-22T15:12:14.528Z,17.90
2023-02-22T15:14:47.517Z,15.85
2023-02-22T15:17:22.439Z,20.35
2023-02-22T15:22:24.618Z,22.08
2023-02-22T15:25:00.980Z,21.02
2023-02-22T15:27:29.943Z,18.77
2023-02-22T15:30:04.349Z,18.38
2023-02-22T15:32:53.243Z,24.80
2023-02-22T15:35:33.738Z,18.15
2023-02-22T15:38:06.048Z,23.33
2023-02-22T15:40:36.226Z,24.65
2023-02-22T15:43:08.834Z,20.00
2023-02-22T15:45:43.277Z,17.27
2023-02-22T15:48:14.774Z,19.33
2023-02-22T15:51:07.884Z,25.45
2023-02-22T15:53:44.637Z,20.83
2023-02-22T15:56:17.580Z,17.95
2023-02-22T15:58:49.751Z,17.92
2023-02-22T16:01:21.281Z,22.23
2023-02-22T16:03:55.285Z,15.02
2023-02-22T16:06:35.490Z,21.30
2023-02-22T16:09:12.008Z,21.38
2023-02-22T16:11:44.515Z,17.83
2023-02-22T16:14:42.908Z,20.58
2023-02-22T16:17:32.015Z,19.25
2023-02-22T16:20:35.392Z,23.90
2023-02-22T16:23:25.678Z,15.65
2023-02-22T16:26:06.887Z,15.48
2023-02-22T16:28:35.904Z,20.95
2023-02-22T16:31:04.800Z,14.77
2023-02-22T16:33:34.437Z,33.00
2023-02-22T16:36:07.959Z,21.92
2023-02-22T16:38:39.128Z,18.35
2023-02-22T16:41:08.492Z,17.33
2023-02-22T16:43:37.670Z,22.05
2023-02-22T16:46:07.801Z,12.27
2023-02-22T16:48:38.096Z,14.40
2023-02-22T16:51:18.019Z,16.33
2023-02-22T16:53:48.751Z,20.88
2023-02-22T16:56:20.163Z,15.55
2023-02-22T16:58:50.941Z,18.70
2023-02-22T17:01:19.988Z,17.30
2023-02-22T17:03:48.808Z,9.70
2023-02-22T17:06:17.674Z,13.65
2023-02-22T17:08:48.712Z,18.55
2023-02-22T17:11:17.234Z,14.95
2023-02-22T17:13:45.983Z,11.38
2023-02-22T17:16:16.220Z,13.85
2023-02-22T17:18:46.126Z,20.85
2023-02-22T17:21:16.557Z,21.80
2023-02-22T17:23:45.869Z,16.20
2023-02-22T17:26:17.615Z,13.93
2023-02-22T17:28:46.517Z,15.73
2023-02-22T17:31:24.994Z,21.08
2023-02-22T17:33:55.001Z,17.05
2023-02-22T17:36:23.547Z,18.25
2023-02-22T17:38:52.094Z,13.40
2023-02-22T17:41:21.627Z,16.65
2023-02-22T17:43:50.597Z,14.32
2023-02-22T17:46:19.890Z,11.13
2023-02-22T17:48:49.180Z,19.63
2023-02-22T17:51:17.722Z,14.25
2023-02-22T17:53:46.259Z,14.98
2023-02-22T17:56:18.571Z,14.38
2023-02-22T17:58:50.124Z,29.40
2023-02-22T18:01:25.029Z,15.52
2023-02-22T18:06:25.403Z,12.85
2023-02-22T18:08:56.400Z,18.73
2023-02-22T18:11:27.117Z,17.08
2023-02-22T18:13:58.740Z,13.70
2023-02-22T18:16:27.821Z,25.58
2023-02-22T18:18:57.075Z,15.93
2023-02-22T18:21:27.318Z,17.55
2023-02-22T18:23:55.879Z,13.90
2023-02-22T18:26:26.058Z,17.05
2023-02-22T18:28:56.350Z,13.18
2023-02-22T18:31:25.183Z,14.90
2023-02-22T18:33:54.335Z,15.13
2023-02-22T18:36:23.660Z,26.38
2023-02-22T18:38:55.434Z,19.88
2023-02-22T18:41:26.260Z,22.73
2023-02-22T18:43:58.971Z,15.32
2023-02-22T18:46:29.904Z,19.88
2023-02-22T18:48:59.282Z,25.88
2023-02-22T18:51:29.764Z,21.58
2023-02-22T18:54:00.979Z,18.17
2023-02-22T18:56:31.020Z,17.05
2023-02-22T18:59:02.942Z,22.42
2023-02-22T19:01:35.619Z,22.85
2023-02-22T19:04:04.041Z,25.92
2023-02-22T19:06:34.895Z,23.35
2023-02-22T19:09:04.649Z,21.85
2023-02-22T19:11:33.223Z,24.55
2023-02-22T19:14:05.193Z,23.20
2023-02-22T19:16:33.768Z,27.55
2023-02-22T19:19:02.482Z,23.15
2023-02-22T19:21:33.659Z,25.20
2023-02-22T19:24:02.513Z,23.58
2023-02-22T19:26:31.992Z,21.77
2023-02-22T19:29:08.354Z,21.48
2023-02-22T19:31:37.181Z,24.95
2023-02-22T19:34:09.429Z,25.58
2023-02-22T19:36:40.586Z,24.52
2023-02-22T19:39:09.537Z,23.70
2023-02-22T19:41:39.235Z,26.63
2023-02-22T19:44:09.636Z,29.45
2023-02-22T19:46:38.899Z,26.27
2023-02-22T19:49:07.987Z,26.67
2023-02-22T19:51:37.505Z,30.95
2023-02-22T19:54:09.182Z,29.33
2023-02-22T19:56:37.804Z,27.20
2023-02-22T19:59:13.488Z,33.80
2023-02-22T20:01:44.241Z,30.48
2023-02-22T20:04:18.204Z,30.10
2023-02-22T20:06:48.984Z,26.38
2023-02-22T20:09:20.795Z,31.70
2023-02-22T20:11:51.437Z,27.52
2023-02-22T20:14:24.206Z,35.45
2023-02-22T20:16:53.125Z,32.80
2023-02-22T20:19:22.524Z,37.55
2023-02-22T20:21:52.237Z,27.58
2023-02-22T20:24:20.869Z,30.15
2023-02-22T20:26:49.974Z,31.10
2023-02-22T20:29:21.300Z,27.10
2023-02-22T20:31:53.564Z,29.48
2023-02-22T20:34:22.033Z,23.88
2023-02-22T20:36:51.265Z,26.65
2023-02-22T20:39:19.671Z,30.52
2023-02-22T20:41:48.261Z,24.05
2023-02-22T20:44:20.027Z,27.40
2023-02-22T20:46:49.435Z,33.05
2023-02-22T20:49:21.330Z,31.90
2023-02-22T20:51:50.510Z,22.27
2023-02-22T20:54:19.054Z,29.02
2023-02-22T20:56:52.627Z,27.98
2023-02-22T20:59:22.901Z,29.57
2023-02-22T21:01:53.021Z,27.08
2023-02-22T21:04:22.646Z,39.63
2023-02-22T21:06:51.918Z,30.00
2023-02-22T21:09:22.416Z,31.63
2023-02-22T21:11:51.350Z,30.52
2023-02-22T21:14:20.022Z,32.42
2023-02-22T21:16:52.155Z,37.28
2023-02-22T21:19:25.234Z,37.00
2023-02-22T21:21:55.992Z,28.85
2023-02-22T21:24:25.554Z,33.70
2023-02-22T21:26:54.126Z,35.20
2023-02-22T21:29:22.845Z,30.77
2023-02-22T21:31:52.587Z,34.17
2023-02-22T21:34:22.257Z,36.22
2023-02-22T21:36:52.425Z,38.22
2023-02-22T21:39:22.347Z,37.80
2023-02-22T21:41:53.038Z,36.78
2023-02-22T21:44:21.935Z,35.55
2023-02-22T21:46:51.954Z,34.58
2023-02-22T21:49:22.706Z,29.83
2023-02-22T21:51:52.650Z,30.40
2023-02-22T21:54:21.367Z,27.75
2023-02-22T21:56:49.929Z,29.08
2023-02-22T21:59:20.927Z,34.00
2023-02-22T22:01:55.442Z,28.70
2023-02-22T22:04:27.525Z,23.05
2023-02-22T22:06:57.813Z,26.63
2023-02-22T22:09:32.275Z,35.08
2023-02-22T22:12:04.925Z,25.40
2023-02-22T22:14:34.450Z,31.38
2023-02-22T22:17:07.765Z,25.38
2023-02-22T22:19:40.398Z,29.20
2023-02-22T22:22:09.419Z,23.98
2023-02-22T22:24:41.403Z,20.77
2023-02-22T22:27:12.770Z,28.73
2023-02-22T22:29:43.376Z,28.45
2023-02-22T22:32:13.571Z,20.20
2023-02-22T22:34:43.152Z,22.67
2023-02-22T22:37:13.147Z,30.98
2023-02-22T22:39:42.434Z,26.02
2023-02-22T22:42:11.156Z,27.95
2023-02-22T22:44:41.949Z,31.85
2023-02-22T22:47:13.225Z,33.72
2023-02-22T22:49:42.467Z,24.92
2023-02-22T22:52:13.773Z,25.73
2023-02-22T22:54:43.144Z,25.15
2023-02-22T22:57:12.416Z,21.98
2023-02-22T22:59:40.698Z,29.90
2023-02-22T23:02:11.100Z,23.88
2023-02-22T23:04:40.732Z,24.88
2023-02-22T23:07:09.239Z,21.75
2023-02-22T23:09:39.416Z,27.55
2023-02-22T23:12:16.683Z,35.53
2023-02-22T23:14:46.625Z,38.42
2023-02-22T23:17:30.746Z,29.70
2023-02-22T23:20:00.417Z,27.48
2023-02-22T23:22:28.976Z,39.92
2023-02-22T23:24:59.801Z,38.08
2023-02-22T23:27:28.352Z,26.95
2023-02-22T23:29:56.653Z,32.55
2023-02-22T23:32:26.742Z,31.77
2023-02-22T23:34:55.373Z,25.75
2023-02-22T23:37:24.990Z,25.95
2023-02-22T23:39:53.614Z,33.92
2023-02-22T23:42:23.022Z,31.25
2023-02-22T23:44:52.892Z,33.03
2023-02-22T23:47:21.554Z,40.05
2023-02-22T23:49:50.277Z,33.97
2023-02-22T23:52:23.864Z,29.27
2023-02-22T23:54:54.412Z,30.88
2023-02-22T23:57:24.358Z,33.33
2023-02-22T23:59:52.571Z,36.67
